Jaquirana, Brazil
Current Conditions -  °F | °C
As of 11:15 PM on Sunday 21 Dec 2014 (Local Time) from SBCM Reporting Station
Thunderstorm Thunderstorm  
Wind Chill: 77°   Ceiling: 10000
Heat Index: 78°   Visibility: 6mi
Dew Point: 73°   Wind: 5mph
Humidity: 89%   Direction: 260°W
Pressure: 29.65"   Gusts: NA
Location:  28.89°S, 50.36°W
Report Text: SBCM 220115Z 26004KT 9999 3000E BCFG TS FEW005 SCT030 FEW040CB OVC100 25/23 Q1004
Loading
Personal Weather Stations






























Interactive Weather Map New forecast layout! Learn more

10-Day Weather Forecast

Advertisements
Track Severe Weather on mobile